Terminal Aerodrome Forecast
Issued by NWS

Home | Current Version | Previous Version | Text Only | Print | Product List | Glossary On
Versions: 1 2 3 4 5 6 7 8 9 10 11 12 13 14 15 16 17 18 19 20 21
000
FTUS43 KDVN 290500
TAFCID
TAF
KCID 290520Z 2906/3006 17012KT P6SM FEW250
     FM290900 18014G22KT P6SM FEW120 BKN250
     FM291300 19015G25KT P6SM VCSH SCT070 OVC100
      TEMPO 2913/2917 4SM -SHRA BKN060 OVC090
     FM291900 29018G32KT P6SM FEW100 SCT250=

USA.gov is the U.S. government's official web portal to all federal, state and local government web resources and services.